createdAt,value
2016-05-09T00:00:01.152Z,0
2016-05-09T00:00:48.184Z,0
2016-05-09T00:01:48.218Z,0
2016-05-09T00:02:48.066Z,0
2016-05-09T00:03:48.302Z,0
2016-05-09T00:05:01.024Z,0
2016-05-09T00:06:00.886Z,0
2016-05-09T00:07:45.282Z,0
2016-05-09T00:07:57.985Z,0
2016-05-09T00:08:57.957Z,0
2016-05-09T00:10:01.053Z,0
2016-05-09T00:11:10.573Z,0
2016-05-09T00:12:04.308Z,0
2016-05-09T00:13:23.783Z,0
2016-05-09T00:14:17.489Z,0
2016-05-09T00:14:57.957Z,0
2016-05-09T00:17:08.962Z,0
2016-05-09T00:18:28.202Z,0
2016-05-09T00:19:08.905Z,0
2016-05-09T00:21:11.617Z,0
2016-05-09T00:21:24.133Z,0
2016-05-09T00:22:24.228Z,0
2016-05-09T00:23:24.325Z,0
2016-05-09T00:24:24.030Z,0
2016-05-09T00:25:24.205Z,0
2016-05-09T00:26:27.270Z,0
2016-05-09T00:27:24.430Z,0
2016-05-09T00:28:37.010Z,0
2016-05-09T00:29:25.701Z,0
2016-05-09T00:30:24.469Z,0
2016-05-09T00:31:37.112Z,0
2016-05-09T00:32:26.130Z,0
2016-05-09T00:33:24.524Z,0
2016-05-09T00:34:37.307Z,0
2016-05-09T00:35:24.420Z,0
2016-05-09T00:36:37.360Z,0
2016-05-09T00:37:24.440Z,0
2016-05-09T00:38:24.709Z,0
2016-05-09T00:39:25.899Z,0
2016-05-09T00:40:43.856Z,0
2016-05-09T00:41:24.545Z,0
2016-05-09T00:42:24.720Z,0
2016-05-09T00:43:24.739Z,0
2016-05-09T00:44:37.554Z,0
2016-05-09T00:45:26.196Z,0
2016-05-09T00:46:24.840Z,0
2016-05-09T00:47:37.561Z,0
2016-05-09T00:48:24.845Z,0
2016-05-09T00:49:37.363Z,0
2016-05-09T00:50:26.304Z,0
2016-05-09T00:51:25.010Z,0
2016-05-09T00:52:24.778Z,0
2016-05-09T00:53:32.483Z,0
2016-05-09T00:54:26.393Z,0
2016-05-09T00:55:25.036Z,0
2016-05-09T00:56:37.757Z,0
2016-05-09T00:57:25.041Z,0
2016-05-09T00:58:44.279Z,0
2016-05-09T00:59:24.922Z,0
2016-05-09T01:00:26.487Z,0
2016-05-09T01:01:37.833Z,0
2016-05-09T01:02:24.993Z,0
2016-05-09T01:03:24.838Z,0
2016-05-09T01:04:44.388Z,0
2016-05-09T01:05:25.032Z,0
2016-05-09T01:06:25.175Z,0
2016-05-09T01:07:37.818Z,0
2016-05-09T01:08:25.273Z,0
2016-05-09T01:09:44.480Z,0
2016-05-09T01:10:25.312Z,0
2016-05-09T01:11:25.157Z,0
2016-05-09T01:12:38.066Z,0
2016-05-09T01:13:28.428Z,0
2016-05-09T01:14:25.446Z,0
2016-05-09T01:15:25.278Z,0
2016-05-09T01:16:25.406Z,0
2016-05-09T01:17:25.517Z,0
2016-05-09T01:18:25.333Z,0
2016-05-09T01:19:38.225Z,0
2016-05-09T01:20:28.400Z,0
2016-05-09T01:21:44.730Z,0
2016-05-09T01:22:25.547Z,0
2016-05-09T01:24:47.911Z,0
2016-05-09T01:25:35.210Z,0
2016-05-09T01:27:44.825Z,0
2016-05-09T01:28:57.531Z,0
2016-05-09T01:29:57.565Z,0
2016-05-09T01:30:44.677Z,0
2016-05-09T01:32:10.507Z,0
2016-05-09T01:32:44.885Z,0
2016-05-09T01:33:44.888Z,0
2016-05-09T01:34:44.766Z,0
2016-05-09T01:35:46.190Z,0
2016-05-09T01:36:46.474Z,0
2016-05-09T01:37:44.851Z,0
2016-05-09T01:38:45.168Z,0
2016-05-09T01:39:45.015Z,0
2016-05-09T01:40:45.126Z,0
2016-05-09T01:41:57.816Z,0
2016-05-09T01:42:57.803Z,0
2016-05-09T01:44:04.320Z,0
2016-05-09T01:45:10.496Z,0
2016-05-09T01:45:44.983Z,0
2016-05-09T01:48:00.114Z,0
2016-05-09T01:49:00.413Z,0
2016-05-09T01:50:03.025Z,0
2016-05-09T01:51:13.078Z,0
2016-05-09T01:52:00.343Z,0
2016-05-09T01:53:00.267Z,0
2016-05-09T01:54:03.286Z,0
2016-05-09T01:55:00.429Z,0
2016-05-09T01:56:00.416Z,0
2016-05-09T01:57:00.466Z,0
2016-05-09T01:58:13.065Z,0
2016-05-09T01:59:00.533Z,0
2016-05-09T02:00:22.679Z,0
2016-05-09T02:01:00.538Z,0
2016-05-09T02:02:57.622Z,0
2016-05-09T02:03:10.279Z,0
2016-05-09T02:04:10.329Z,0
2016-05-09T02:05:13.334Z,0
2016-05-09T02:06:13.476Z,0
2016-05-09T02:07:22.948Z,0
2016-05-09T02:08:10.479Z,0
2016-05-09T02:09:10.421Z,0
2016-05-09T02:10:29.644Z,0
2016-05-09T02:11:23.193Z,0
2016-05-09T02:12:41.759Z,0
2016-05-09T02:13:36.167Z,0
2016-05-09T02:14:10.651Z,0
2016-05-09T02:16:13.098Z,0
2016-05-09T02:16:25.942Z,0
2016-05-09T02:17:25.803Z,0
2016-05-09T02:18:25.806Z,0
2016-05-09T02:19:25.839Z,0
2016-05-09T02:20:25.842Z,0
2016-05-09T02:21:33.533Z,0
2016-05-09T02:22:25.755Z,0
2016-05-09T02:23:25.982Z,0
2016-05-09T02:24:25.782Z,0
2016-05-09T02:25:25.940Z,0
2016-05-09T02:26:25.975Z,0
2016-05-09T02:27:26.088Z,0
2016-05-09T02:28:26.012Z,0
2016-05-09T02:29:38.779Z,0
2016-05-09T02:30:38.782Z,0
2016-05-09T02:31:51.738Z,0
2016-05-09T02:33:35.791Z,0
2016-05-09T02:35:01.153Z,0
2016-05-09T02:35:35.843Z,0
2016-05-09T02:36:35.861Z,0
2016-05-09T02:37:48.598Z,0
2016-05-09T02:38:48.461Z,0
2016-05-09T02:39:55.214Z,0
2016-05-09T02:40:56.450Z,0
2016-05-09T02:41:55.125Z,0
2016-05-09T02:42:35.815Z,0
2016-05-09T02:43:37.270Z,0
2016-05-09T02:44:36.336Z,0
2016-05-09T02:45:48.745Z,0
2016-05-09T02:46:36.060Z,0
2016-05-09T02:48:07.328Z,0
2016-05-09T02:48:36.269Z,0
2016-05-09T02:49:36.100Z,4
2016-05-09T02:50:36.118Z,4
2016-05-09T02:51:36.136Z,0
2016-05-09T02:52:36.201Z,0
2016-05-09T02:53:36.360Z,4
2016-05-09T02:54:36.190Z,4
2016-05-09T02:55:36.241Z,0
2016-05-09T02:56:36.227Z,4
2016-05-09T02:57:36.387Z,4
2016-05-09T02:58:35.951Z,4
2016-05-09T02:59:36.377Z,4
2016-05-09T03:00:44.004Z,8
2016-05-09T03:01:36.398Z,8
2016-05-09T03:02:36.696Z,8
2016-05-09T03:03:36.449Z,8
2016-05-09T03:04:36.326Z,12
2016-05-09T03:05:36.470Z,12
2016-05-09T03:06:55.692Z,16
2016-05-09T03:07:49.257Z,16
2016-05-09T03:09:02.244Z,16
2016-05-09T03:09:36.466Z,20
2016-05-09T03:10:36.703Z,20
2016-05-09T03:11:36.533Z,24
2016-05-09T03:12:55.848Z,28
2016-05-09T03:13:49.320Z,32
2016-05-09T03:15:08.261Z,36
2016-05-09T03:16:33.406Z,44
2016-05-09T03:17:17.409Z,48
2016-05-09T03:18:17.380Z,56
2016-05-09T03:19:17.430Z,64
2016-05-09T03:20:30.011Z,72
2016-05-09T03:21:20.483Z,76
2016-05-09T03:22:43.141Z,92
2016-05-09T03:23:17.488Z,100
2016-05-09T03:24:48.802Z,116
2016-05-09T03:25:30.274Z,124
2016-05-09T03:26:48.871Z,144
2016-05-09T03:27:17.389Z,148
2016-05-09T03:28:17.705Z,164
2016-05-09T03:29:30.144Z,180
2016-05-09T03:30:36.647Z,200
2016-05-09T03:31:36.868Z,224
2016-05-09T03:32:43.371Z,244
2016-05-09T03:33:39.936Z,264
2016-05-09T03:34:50.393Z,292
2016-05-09T03:35:53.739Z,316
2016-05-09T03:37:03.210Z,344
2016-05-09T03:37:32.119Z,356
2016-05-09T03:39:03.326Z,396
2016-05-09T03:39:32.156Z,408
2016-05-09T03:40:32.159Z,440
2016-05-09T03:41:32.005Z,472
2016-05-09T03:42:32.054Z,504
2016-05-09T03:43:51.775Z,548
2016-05-09T03:45:01.107Z,576
2016-05-09T03:45:35.453Z,612
2016-05-09T03:46:37.050Z,652
2016-05-09T03:47:48.380Z,704
2016-05-09T03:48:45.008Z,744
2016-05-09T03:49:58.542Z,796
2016-05-09T03:50:38.044Z,824
2016-05-09T03:52:38.956Z,920
2016-05-09T03:52:51.644Z,932
2016-05-09T03:53:51.662Z,984
2016-05-09T03:54:54.696Z,1040
2016-05-09T03:55:51.793Z,1088
2016-05-09T03:56:51.717Z,1140
2016-05-09T03:58:04.485Z,1208
2016-05-09T03:59:04.597Z,1264
2016-05-09T04:00:05.896Z,1320
2016-05-09T04:01:10.978Z,1384
2016-05-09T04:01:51.887Z,1424
2016-05-09T04:03:23.110Z,1512
2016-05-09T04:03:51.829Z,1540
2016-05-09T04:04:51.942Z,1604
2016-05-09T04:06:04.631Z,1676
2016-05-09T04:06:51.979Z,1724
2016-05-09T04:08:11.137Z,1804
2016-05-09T04:08:51.843Z,1848
2016-05-09T04:10:17.754Z,1932
2016-05-09T04:10:55.004Z,1972
2016-05-09T04:12:54.573Z,2092
2016-05-09T04:13:32.920Z,2124
2016-05-09T04:14:07.138Z,2156
2016-05-09T04:16:05.658Z,2248
2016-05-09T04:16:18.177Z,2284
2016-05-09T04:17:18.195Z,2344
2016-05-09T04:18:18.198Z,2392
2016-05-09T04:19:18.139Z,2440
2016-05-09T04:20:30.985Z,2512
2016-05-09T04:21:19.705Z,2552
2016-05-09T04:22:18.318Z,2608
2016-05-09T04:23:21.352Z,2664
2016-05-09T04:24:18.214Z,2724
2016-05-09T04:25:18.374Z,2780
2016-05-09T04:26:37.266Z,2860
2016-05-09T04:27:19.863Z,2892
2016-05-09T04:28:49.553Z,2976
2016-05-09T04:29:27.993Z,3008
2016-05-09T04:31:43.561Z,3124
2016-05-09T04:32:43.517Z,3176
2016-05-09T04:34:02.785Z,3236
2016-05-09T04:34:43.679Z,3268
2016-05-09T04:36:40.590Z,3344
2016-05-09T04:36:53.403Z,3376
2016-05-09T04:38:55.862Z,3484
2016-05-09T04:39:27.754Z,3508
2016-05-09T04:40:08.598Z,3536
2016-05-09T04:41:08.570Z,3572
2016-05-09T04:42:14.869Z,3612
2016-05-09T04:43:11.731Z,3652
2016-05-09T04:44:34.143Z,3720
2016-05-09T04:45:08.675Z,3748
2016-05-09T04:46:08.646Z,3792
2016-05-09T04:47:08.789Z,3828
2016-05-09T04:49:12.685Z,3896
2016-05-09T04:49:51.048Z,3920
2016-05-09T04:50:25.361Z,3944
2016-05-09T04:51:51.100Z,3976
2016-05-09T04:53:00.492Z,4024
2016-05-09T04:53:44.480Z,4060
2016-05-09T04:54:44.466Z,4120
2016-05-09T04:55:45.923Z,4204
2016-05-09T04:59:09.665Z,4508
2016-05-09T05:00:09.402Z,4756
2016-05-09T05:01:10.717Z,5020
2016-05-09T05:02:22.066Z,5252
2016-05-09T05:03:22.272Z,5512
2016-05-09T05:05:31.293Z,6164
2016-05-09T05:05:43.965Z,6372
2016-05-09T05:07:15.280Z,7392
2016-05-09T05:08:24.879Z,8696
2016-05-09T05:10:34.620Z,12036
2016-05-09T05:11:08.963Z,12160
2016-05-09T05:13:11.546Z,12532
2016-05-09T05:13:24.081Z,12576
2016-05-09T05:15:14.630Z,12676
2016-05-09T05:15:27.304Z,12700
2016-05-09T05:16:34.635Z,12832
2016-05-09T05:17:27.201Z,12888
2016-05-09T05:18:27.406Z,12980
2016-05-09T05:19:40.128Z,13176
2016-05-09T05:20:28.677Z,13284
2016-05-09T05:21:27.445Z,13344
2016-05-09T05:22:27.463Z,13472
2016-05-09T05:23:27.608Z,13660
2016-05-09T05:24:27.517Z,13880
2016-05-09T05:25:27.628Z,13972
2016-05-09T05:26:27.552Z,14336
2016-05-09T05:27:27.633Z,14592
2016-05-09T05:28:27.605Z,14688
2016-05-09T05:29:27.592Z,14688
2016-05-09T05:30:27.517Z,14880
2016-05-09T05:31:47.035Z,15168
2016-05-09T05:32:27.709Z,15296
2016-05-09T05:33:59.040Z,15552
2016-05-09T05:34:29.262Z,15680
2016-05-09T05:35:27.812Z,15904
2016-05-09T05:36:27.846Z,16192
2016-05-09T05:37:27.848Z,16384
2016-05-09T05:38:27.913Z,16736
2016-05-09T05:39:27.915Z,16928
2016-05-09T05:40:30.840Z,17152
2016-05-09T05:41:27.828Z,17440
2016-05-09T05:42:28.018Z,18080
2016-05-09T05:43:27.911Z,19296
2016-05-09T05:44:29.117Z,20416
2016-05-09T05:45:28.135Z,20992
2016-05-09T05:46:28.107Z,20864
2016-05-09T05:47:28.203Z,20288
2016-05-09T05:48:27.893Z,19456
2016-05-09T05:49:40.802Z,18432
2016-05-09T05:50:28.242Z,18208
2016-05-09T05:51:28.135Z,18176
2016-05-09T05:52:41.044Z,18336
2016-05-09T05:53:28.345Z,18368
2016-05-09T05:54:28.394Z,18240
2016-05-09T05:55:28.428Z,18208
2016-05-09T05:56:28.461Z,18656
2016-05-09T05:57:28.496Z,18976
2016-05-09T05:58:28.341Z,18784
2016-05-09T05:59:29.469Z,18272
2016-05-09T06:00:28.625Z,18144
2016-05-09T06:01:28.547Z,18144
2016-05-09T06:02:30.374Z,18176
2016-05-09T06:03:30.327Z,18336
2016-05-09T06:04:29.030Z,18976
2016-05-09T06:05:28.814Z,19232
2016-05-09T06:06:29.099Z,19264
2016-05-09T06:07:29.116Z,19008
2016-05-09T06:08:35.463Z,18528
2016-05-09T06:09:29.154Z,18464
2016-05-09T06:10:29.177Z,18464
2016-05-09T06:11:29.263Z,18464
2016-05-09T06:12:29.382Z,18272
2016-05-09T06:13:29.333Z,18176
2016-05-09T06:14:29.372Z,18368
2016-05-09T06:15:29.393Z,18496
2016-05-09T06:16:29.288Z,18528
2016-05-09T06:17:29.465Z,18496
2016-05-09T06:18:29.329Z,18528
2016-05-09T06:19:29.583Z,18624
2016-05-09T06:20:29.414Z,18688
2016-05-09T06:21:29.574Z,18688
2016-05-09T06:22:29.609Z,18688
2016-05-09T06:23:29.518Z,18624
2016-05-09T06:24:29.522Z,18688
2016-05-09T06:25:29.759Z,18624
2016-05-09T06:26:29.778Z,18880
2016-05-09T06:27:29.656Z,19072
2016-05-09T06:28:31.252Z,19072
2016-05-09T06:29:42.442Z,19168
2016-05-09T06:30:29.742Z,19200
2016-05-09T06:31:29.916Z,19264
2016-05-09T06:32:30.105Z,19424
2016-05-09T06:33:29.843Z,19488
2016-05-09T06:34:30.080Z,19616
2016-05-09T06:35:29.896Z,19520
2016-05-09T06:36:30.086Z,19296
2016-05-09T06:37:31.541Z,19200
2016-05-09T06:38:49.450Z,19264
2016-05-09T06:39:39.703Z,19200
2016-05-09T06:40:33.471Z,19040
2016-05-09T06:41:48.130Z,18816
2016-05-09T06:42:33.508Z,18848
2016-05-09T06:43:33.385Z,18976
2016-05-09T06:44:46.186Z,19296
2016-05-09T06:45:35.063Z,19488
2016-05-09T06:46:33.738Z,19616
2016-05-09T06:47:46.443Z,19872
2016-05-09T06:48:33.727Z,20032
2016-05-09T06:49:52.965Z,20096
2016-05-09T06:50:33.811Z,20064
2016-05-09T06:51:33.845Z,19968
2016-05-09T06:52:33.706Z,19776
2016-05-09T06:53:35.194Z,19648
2016-05-09T06:54:33.947Z,20192
2016-05-09T06:55:33.981Z,21568
2016-05-09T06:56:34.031Z,22368
2016-05-09T06:57:34.064Z,21728
2016-05-09T06:58:34.067Z,21056
2016-05-09T06:59:34.117Z,20896
2016-05-09T07:00:34.134Z,20992
2016-05-09T07:01:35.450Z,21312
2016-05-09T07:02:34.296Z,21952
2016-05-09T07:03:53.424Z,22912
2016-05-09T07:04:34.286Z,23648
2016-05-09T07:06:36.917Z,23648
2016-05-09T07:07:15.589Z,23008
2016-05-09T07:07:49.778Z,22208
2016-05-09T07:08:49.688Z,21120
2016-05-09T07:10:02.471Z,20352
2016-05-09T07:10:51.005Z,20064
2016-05-09T07:12:15.305Z,20480
2016-05-09T07:12:49.792Z,20960
2016-05-09T07:13:49.983Z,21728
2016-05-09T07:15:02.688Z,22752
2016-05-09T07:16:09.113Z,24960
2016-05-09T07:16:52.927Z,26336
2016-05-09T07:18:12.149Z,27072
2016-05-09T07:18:53.012Z,27232
2016-05-09T07:20:58.642Z,28320
2016-05-09T07:21:11.220Z,28576
2016-05-09T07:22:11.098Z,29984
2016-05-09T07:23:11.303Z,32384
2016-05-09T07:24:23.900Z,37248
2016-05-09T07:25:12.824Z,41216
2016-05-09T07:26:11.421Z,48032
2016-05-09T07:27:12.736Z,52736
2016-05-09T07:28:11.301Z,54784
2016-05-09T07:29:14.820Z,58176
2016-05-09T07:30:11.542Z,60768
2016-05-09T07:31:17.825Z,61248
2016-05-09T07:32:14.483Z,57664
2016-05-09T07:33:11.675Z,54944
2016-05-09T07:34:24.427Z,55488
2016-05-09T07:35:14.867Z,57440
2016-05-09T07:36:30.966Z,59808
2016-05-09T07:37:24.388Z,60352
2016-05-09T07:38:11.656Z,56960
2016-05-09T07:39:37.521Z,54560
2016-05-09T07:40:21.489Z,56000
2016-05-09T07:41:33.964Z,58016
2016-05-09T07:42:21.277Z,56160
2016-05-09T07:44:18.532Z,55488
2016-05-09T07:44:32.457Z,55456
2016-05-09T07:46:34.540Z,54080
2016-05-09T07:48:31.779Z,59872
2016-05-09T07:48:45.701Z,59648
2016-05-09T07:50:04.971Z,58912
2016-05-09T07:50:47.394Z,57568
2016-05-09T07:52:05.184Z,56704
2016-05-09T07:52:46.015Z,58208
2016-05-09T07:53:45.751Z,56608
2016-05-09T07:54:46.087Z,56384
2016-05-09T07:55:46.141Z,58336
2016-05-09T07:56:58.925Z,57184
2016-05-09T07:57:58.943Z,55936
2016-05-09T07:59:07.337Z,57856
2016-05-09T08:00:05.464Z,60832
2016-05-09T08:01:17.576Z,62880
2016-05-09T08:02:17.704Z,41344
2016-05-09T08:02:46.347Z,26624
2016-05-09T08:03:46.537Z,8472
2016-05-09T08:04:55.977Z,7492
2016-05-09T08:06:17.355Z,6972
2016-05-09T08:06:51.545Z,6836
2016-05-09T08:07:54.485Z,6776
2016-05-09T08:09:17.176Z,6692
2016-05-09T08:10:03.773Z,6596
2016-05-09T08:10:46.635Z,6500
2016-05-09T08:12:08.762Z,6352
2016-05-09T08:12:46.390Z,6284
2016-05-09T08:14:49.270Z,6124
2016-05-09T08:15:01.801Z,6124
2016-05-09T08:16:01.992Z,6136
2016-05-09T08:17:02.010Z,6136
2016-05-09T08:18:14.623Z,6124
2016-05-09T08:19:21.125Z,6120
2016-05-09T08:20:27.767Z,6160
2016-05-09T08:21:21.396Z,6172
2016-05-09T08:22:27.727Z,6120
2016-05-09T08:23:59.248Z,6124
2016-05-09T08:24:11.764Z,6128
2016-05-09T08:25:11.939Z,6144
2016-05-09T08:26:13.863Z,6140
2016-05-09T08:27:11.991Z,6128
2016-05-09T08:28:24.602Z,6096
2016-05-09T08:29:13.496Z,6080
2016-05-09T08:30:12.061Z,6084
2016-05-09T08:31:11.985Z,6100
2016-05-09T08:32:12.300Z,6108
2016-05-09T08:33:31.366Z,6124
2016-05-09T08:34:12.196Z,6140
2016-05-09T08:35:43.515Z,6124
2016-05-09T08:36:12.249Z,6116
2016-05-09T08:37:12.252Z,6100
2016-05-09T08:38:31.348Z,6080
2016-05-09T08:39:15.303Z,6080
2016-05-09T08:40:34.669Z,6088
2016-05-09T08:41:18.419Z,6084
2016-05-09T08:42:18.515Z,6088
2016-05-09T08:43:19.955Z,6096
2016-05-09T08:44:20.348Z,6096
2016-05-09T08:45:31.179Z,6088
2016-05-09T08:46:31.370Z,6116
2016-05-09T08:47:40.875Z,6120
2016-05-09T08:48:18.718Z,6116
2016-05-09T08:49:18.534Z,6120
2016-05-09T08:50:31.473Z,6128
2016-05-09T08:51:31.336Z,6148
2016-05-09T08:52:44.311Z,6108
2016-05-09T08:53:18.842Z,6112
2016-05-09T08:55:15.972Z,6120
2016-05-09T08:55:28.753Z,6128
2016-05-09T08:57:44.324Z,6152
2016-05-09T08:58:44.623Z,6136
2016-05-09T08:59:44.344Z,6144
2016-05-09T09:00:44.097Z,6152
2016-05-09T09:01:44.303Z,6144
2016-05-09T09:02:44.305Z,6168
2016-05-09T09:03:44.386Z,6140
2016-05-09T09:04:44.202Z,6136
2016-05-09T09:05:44.235Z,6128
2016-05-09T09:06:45.644Z,6104
2016-05-09T09:07:45.850Z,6096
2016-05-09T09:08:44.463Z,6080
2016-05-09T09:09:44.481Z,6088
2016-05-09T09:10:44.373Z,6072
2016-05-09T09:11:44.532Z,6056
2016-05-09T09:12:46.099Z,6048
2016-05-09T09:13:46.023Z,6048
2016-05-09T09:15:03.713Z,6040
2016-05-09T09:15:49.107Z,6040
2016-05-09T09:18:00.581Z,5996
2016-05-09T09:19:00.552Z,5960
2016-05-09T09:20:00.492Z,5952
2016-05-09T09:21:00.620Z,5940
2016-05-09T09:22:19.841Z,5904
2016-05-09T09:23:02.078Z,5896
2016-05-09T09:25:10.428Z,5884
2016-05-09T09:26:22.961Z,5872
2016-05-09T09:27:23.167Z,5864
2016-05-09T09:28:10.451Z,5860
2016-05-09T09:29:10.453Z,5848
2016-05-09T09:30:10.456Z,5868
2016-05-09T09:31:10.568Z,5852
2016-05-09T09:32:10.494Z,5844
2016-05-09T09:33:10.496Z,5836
2016-05-09T09:34:10.561Z,5828
2016-05-09T09:35:12.080Z,5824
2016-05-09T09:36:10.613Z,5816
2016-05-09T09:37:10.616Z,5804
2016-05-09T09:38:10.650Z,5812
2016-05-09T09:39:23.262Z,5816
2016-05-09T09:40:12.108Z,5824
2016-05-09T09:41:12.018Z,5816
2016-05-09T09:42:10.785Z,5828
2016-05-09T09:43:10.820Z,5828
2016-05-09T09:44:11.025Z,5828
2016-05-09T09:45:13.888Z,5804
2016-05-09T09:46:10.874Z,5800
2016-05-09T09:47:10.923Z,5800
2016-05-09T09:48:23.584Z,5800
2016-05-09T09:49:10.976Z,5808
2016-05-09T09:50:30.198Z,5796
2016-05-09T09:51:23.403Z,5780
2016-05-09T09:52:42.331Z,5776
2016-05-09T09:53:36.737Z,5768
2016-05-09T09:54:10.771Z,5764
2016-05-09T09:55:10.978Z,5748
2016-05-09T09:56:11.151Z,5728
2016-05-09T09:57:43.875Z,5708
2016-05-09T09:58:27.844Z,5696
2016-05-09T09:59:27.894Z,5692
2016-05-09T10:00:29.271Z,5688
2016-05-09T10:01:40.700Z,5672
2016-05-09T10:02:27.981Z,5660
2016-05-09T10:03:46.908Z,5632
2016-05-09T10:04:40.739Z,5616
2016-05-09T10:06:55.712Z,5628
2016-05-09T10:07:43.152Z,5632
2016-05-09T10:09:08.968Z,5620
2016-05-09T10:09:46.251Z,5612
2016-05-09T10:10:43.238Z,5600
2016-05-09T10:11:43.273Z,5612
2016-05-09T10:12:46.338Z,5620
2016-05-09T10:13:44.732Z,5596
2016-05-09T10:15:02.546Z,5552
2016-05-09T10:15:43.393Z,5524
2016-05-09T10:16:43.474Z,5500
2016-05-09T10:17:43.429Z,5472
2016-05-09T10:18:44.729Z,5476
2016-05-09T10:19:43.310Z,5468
2016-05-09T10:21:02.422Z,5464
2016-05-09T10:21:56.018Z,5464
2016-05-09T10:22:43.709Z,5464
2016-05-09T10:24:09.101Z,5492
2016-05-09T10:24:43.776Z,5496
2016-05-09T10:26:14.982Z,5456
2016-05-09T10:26:45.063Z,5452
2016-05-09T10:28:56.303Z,5504
2016-05-09T10:29:43.743Z,5500
2016-05-09T10:31:02.980Z,5476
2016-05-09T10:31:56.389Z,5452
2016-05-09T10:33:03.032Z,5444
2016-05-09T10:34:03.051Z,5432
2016-05-09T10:34:47.006Z,5428
2016-05-09T10:35:46.869Z,5440
2016-05-09T10:37:00.168Z,5440
2016-05-09T10:37:46.764Z,5420
2016-05-09T10:38:47.110Z,5424
2016-05-09T10:39:50.207Z,5436
2016-05-09T10:40:47.163Z,5444
2016-05-09T10:41:59.760Z,5448
2016-05-09T10:42:59.966Z,5448
2016-05-09T10:43:47.093Z,5456
2016-05-09T10:44:47.299Z,5444
2016-05-09T10:45:49.317Z,5448
2016-05-09T10:46:47.179Z,5464
2016-05-09T10:47:59.620Z,5492
2016-05-09T10:49:01.373Z,5516
2016-05-09T10:50:44.362Z,5528
2016-05-09T10:51:16.112Z,5528
2016-05-09T10:52:16.380Z,5568
2016-05-09T10:52:58.523Z,5604
2016-05-09T10:54:28.417Z,5648
2016-05-09T10:55:06.451Z,5636
2016-05-09T10:55:57.048Z,5672
2016-05-09T10:57:09.800Z,5600
2016-05-09T10:57:57.256Z,5584
2016-05-09T10:58:57.305Z,5600
2016-05-09T11:00:16.511Z,5520
2016-05-09T11:01:10.092Z,5408
2016-05-09T11:02:28.625Z,5420
2016-05-09T11:04:00.756Z,5384
2016-05-09T11:05:00.758Z,5368
2016-05-09T11:06:00.793Z,5348
2016-05-09T11:07:20.046Z,5352
2016-05-09T11:08:13.595Z,5332
2016-05-09T11:09:26.613Z,5312
2016-05-09T11:10:21.554Z,5300
2016-05-09T11:11:32.227Z,5264
2016-05-09T11:12:32.246Z,5272
2016-05-09T11:13:10.656Z,5284
2016-05-09T11:15:13.521Z,5296
2016-05-09T11:15:26.177Z,5300
2016-05-09T11:16:26.210Z,5300
2016-05-09T11:17:26.275Z,5336
2016-05-09T11:18:39.012Z,5360
2016-05-09T11:19:38.890Z,5556
2016-05-09T11:20:51.989Z,5488
2016-05-09T11:22:23.320Z,5336
2016-05-09T11:23:19.870Z,5276
2016-05-09T11:24:26.529Z,5300
2016-05-09T11:25:26.391Z,5296
2016-05-09T11:26:10.393Z,5320
2016-05-09T11:27:32.943Z,5368
2016-05-09T11:28:19.868Z,5432
2016-05-09T11:29:20.480Z,5448
2016-05-09T11:30:33.310Z,5388
2016-05-09T11:31:33.173Z,5380
2016-05-09T11:32:38.831Z,5416
2016-05-09T11:33:33.241Z,5404
2016-05-09T11:34:07.602Z,5376
2016-05-09T11:36:04.608Z,5332
2016-05-09T11:36:17.280Z,5352
2016-05-09T11:38:19.895Z,5356
2016-05-09T11:38:32.567Z,5372
2016-05-09T11:39:32.694Z,5508
2016-05-09T11:40:45.388Z,5368
2016-05-09T11:41:45.249Z,5296
2016-05-09T11:43:03.674Z,5260
2016-05-09T11:43:58.396Z,5220
2016-05-09T11:44:32.661Z,5220
2016-05-09T11:45:34.179Z,5208
2016-05-09T11:46:32.822Z,5196
2016-05-09T11:47:52.016Z,5164
2016-05-09T11:48:45.534Z,5148
2016-05-09T11:49:58.551Z,5136
2016-05-09T11:50:32.926Z,5128
2016-05-09T11:51:34.210Z,5140
2016-05-09T11:52:32.963Z,5132
2016-05-09T11:53:33.013Z,5116
2016-05-09T11:54:45.768Z,5132
2016-05-09T11:55:32.893Z,5140
2016-05-09T11:56:33.052Z,5168
2016-05-09T11:57:34.508Z,5200
2016-05-09T11:58:34.777Z,5200
2016-05-09T11:59:36.561Z,5116
2016-05-09T12:00:33.031Z,5108
2016-05-09T12:01:39.456Z,5104
2016-05-09T12:02:45.837Z,5092
2016-05-09T12:03:45.996Z,5128
2016-05-09T12:04:53.108Z,5112
2016-05-09T12:05:33.327Z,5120
2016-05-09T12:06:58.878Z,5120
2016-05-09T12:07:46.132Z,5108
2016-05-09T12:09:11.900Z,5132
2016-05-09T12:10:43.074Z,5128
2016-05-09T12:11:43.139Z,5104
2016-05-09T12:12:44.411Z,5088
2016-05-09T12:13:55.882Z,5104
2016-05-09T12:14:43.788Z,5120
2016-05-09T12:16:45.796Z,5164
2016-05-09T12:16:58.577Z,5152
2016-05-09T12:17:58.408Z,5116
2016-05-09T12:19:11.490Z,5092
2016-05-09T12:19:59.898Z,5092
2016-05-09T12:21:24.416Z,5048
2016-05-09T12:21:58.701Z,5016
2016-05-09T12:23:31.469Z,5012
2016-05-09T12:24:11.549Z,4992
2016-05-09T12:24:58.755Z,5048
2016-05-09T12:26:57.214Z,5016
2016-05-09T12:27:09.776Z,5008
2016-05-09T12:28:09.779Z,4964
2016-05-09T12:29:11.220Z,4952
2016-05-09T12:30:11.253Z,4964
2016-05-09T12:32:25.634Z,4940
2016-05-09T12:33:25.653Z,4940
2016-05-09T12:34:38.467Z,4984
2016-05-09T12:35:38.267Z,5016
2016-05-09T12:36:25.722Z,5024
2016-05-09T12:38:35.447Z,5032
2016-05-09T12:38:47.980Z,5032
2016-05-09T12:39:48.014Z,5040
2016-05-09T12:40:49.455Z,5072
2016-05-09T12:42:00.786Z,5096
2016-05-09T12:43:00.663Z,5104
2016-05-09T12:44:14.087Z,5088
2016-05-09T12:44:48.185Z,5088
2016-05-09T12:45:48.203Z,5068
2016-05-09T12:46:48.221Z,5064
2016-05-09T12:47:48.083Z,5060
2016-05-09T12:48:56.257Z,5068
2016-05-09T12:49:48.277Z,5108
2016-05-09T12:50:48.326Z,5232
2016-05-09T12:51:48.188Z,5240
2016-05-09T12:52:48.206Z,5184
2016-05-09T12:54:01.036Z,5144
2016-05-09T12:54:49.868Z,5140
2016-05-09T12:55:48.480Z,5192
2016-05-09T12:56:51.388Z,5216
2016-05-09T12:57:48.704Z,5248
2016-05-09T12:58:48.409Z,5232
2016-05-09T12:59:48.318Z,5208
2016-05-09T13:00:48.603Z,5212
2016-05-09T13:01:48.684Z,5272
2016-05-09T13:02:52.029Z,5400
2016-05-09T13:03:50.095Z,5624
2016-05-09T13:04:50.144Z,5820
2016-05-09T13:05:51.819Z,5824
2016-05-09T13:06:51.962Z,5620
2016-05-09T13:07:55.043Z,5560
2016-05-09T13:08:48.967Z,5724
2016-05-09T13:09:48.689Z,5820
2016-05-09T13:10:50.300Z,5580
2016-05-09T13:11:48.772Z,5176
2016-05-09T13:13:08.166Z,5160
2016-05-09T13:15:23.453Z,5176
2016-05-09T13:16:23.502Z,5160
2016-05-09T13:17:36.099Z,5144
2016-05-09T13:18:36.304Z,5100
2016-05-09T13:19:23.573Z,5080
2016-05-09T13:21:33.266Z,5048
2016-05-09T13:23:30.255Z,5032
2016-05-09T13:24:08.664Z,5036
2016-05-09T13:25:02.230Z,5036
2016-05-09T13:26:17.498Z,5032
2016-05-09T13:26:46.060Z,5020
2016-05-09T13:27:46.282Z,5076
2016-05-09T13:28:46.284Z,5088
2016-05-09T13:29:47.428Z,5088
2016-05-09T13:31:05.574Z,5104
2016-05-09T13:31:59.107Z,5108
2016-05-09T13:33:12.767Z,5116
2016-05-09T13:34:17.675Z,5132
2016-05-09T13:35:14.382Z,5124
2016-05-09T13:36:28.775Z,5124
2016-05-09T13:37:10.325Z,5128
2016-05-09T13:38:33.498Z,5148
2016-05-09T13:39:17.486Z,5196
2016-05-09T13:40:36.707Z,5304
2016-05-09T13:41:30.116Z,5244
2016-05-09T13:42:17.384Z,5200
2016-05-09T13:43:17.419Z,5132
2016-05-09T13:44:17.483Z,5120
2016-05-09T13:45:17.658Z,5136
2016-05-09T13:46:17.520Z,5128
2016-05-09T13:47:17.554Z,5124
2016-05-09T13:48:18.135Z,5108
2016-05-09T13:49:17.902Z,5092
2016-05-09T13:50:36.999Z,5088
2016-05-09T13:51:25.471Z,5108
2016-05-09T13:52:48.958Z,5116
2016-05-09T13:53:17.946Z,5124
2016-05-09T13:54:18.088Z,5104
2016-05-09T13:55:37.138Z,5096
2016-05-09T13:56:18.016Z,5084
2016-05-09T13:57:18.004Z,5052
2016-05-09T13:58:37.146Z,5096
2016-05-09T13:59:19.305Z,5072
2016-05-09T14:01:15.029Z,4968
2016-05-09T14:01:33.982Z,4792
2016-05-09T14:02:27.751Z,5012
2016-05-09T14:03:46.832Z,5088
2016-05-09T14:05:02.962Z,5120
2016-05-09T14:05:31.103Z,5128
2016-05-09T14:07:15.905Z,5108